Time;durP1;ratioP1;P1;durP2;ratioP2;P2;SDS_P1;SDS_P2;PMS_P1;PMS_P2;Temp;Humidity;BMP_temperature;BMP_pressure;BME280_temperature;BME280_humidity;BME280_pressure;Samples;Min_cycle;Max_cycle;Signal;HPM_P1;HPM_P2
2023/01/02 00:00:50;;;;;;;41.15;21.88;;;;;;;2.36;82.13;101613.34;5052487;28;20086;-25
2023/01/02 00:03:15;;;;;;;33.85;19.10;;;;;;;1.99;81.96;101616.34;5069999;28;20072;-27
2023/01/02 00:05:41;;;;;;;35.22;17.48;;;;;;;1.89;82.55;101611.00;5070100;28;20036;-26
2023/01/02 00:08:06;;;;;;;31.25;17.58;;;;;;;1.67;81.47;101598.72;5070230;28;20111;-28
2023/01/02 00:10:32;;;;;;;31.52;16.75;;;;;;;1.45;82.21;101607.50;5052323;28;20024;-25
2023/01/02 00:12:57;;;;;;;30.00;15.07;;;;;;;1.46;82.78;101617.06;5070239;28;20481;-24
2023/01/02 00:15:22;;;;;;;30.55;18.08;;;;;;;1.56;83.18;101591.72;5070003;28;20021;-27
2023/01/02 00:17:48;;;;;;;25.17;16.55;;;;;;;1.73;82.54;101615.81;5051878;28;20027;-25
2023/01/02 00:20:13;;;;;;;30.90;17.63;;;;;;;1.59;83.28;101607.25;5069882;28;20036;-26
2023/01/02 00:22:38;;;;;;;33.13;18.65;;;;;;;1.92;82.31;101623.06;5069912;28;20050;-25
2023/01/02 00:25:06;;;;;;;44.85;26.67;;;;;;;2.24;81.64;101591.47;5051936;28;20127;-27
2023/01/02 00:27:31;;;;;;;36.17;20.70;;;;;;;2.69;79.92;101612.31;5058184;28;20115;-28
2023/01/02 00:29:56;;;;;;;39.65;22.27;;;;;;;2.47;80.61;101618.53;5080915;28;20135;-27
2023/01/02 00:32:22;;;;;;;38.00;20.63;;;;;;;2.51;81.50;101619.09;5078011;28;20032;-26
2023/01/02 00:34:47;;;;;;;36.67;19.58;;;;;;;2.34;80.48;101628.41;5080920;28;20409;-26
2023/01/02 00:37:12;;;;;;;34.70;18.60;;;;;;;1.88;82.58;101606.72;5079152;28;20020;-27
2023/01/02 00:39:38;;;;;;;36.53;19.90;;;;;;;2.18;82.56;101610.41;5078676;28;20094;-26
2023/01/02 00:42:03;;;;;;;36.38;20.50;;;;;;;2.48;82.48;101620.22;5079865;28;20549;-25
2023/01/02 00:44:29;;;;;;;35.10;19.38;;;;;;;2.39;82.30;101594.63;5078390;28;20475;-25
2023/01/02 00:46:55;;;;;;;40.20;21.20;;;;;;;2.53;83.33;101617.19;5078591;28;20020;-25
2023/01/02 00:49:20;;;;;;;37.85;19.60;;;;;;;2.47;83.07;101607.16;5079749;28;20033;-27
2023/01/02 00:51:45;;;;;;;39.28;20.77;;;;;;;2.32;82.41;101590.84;5078187;28;20028;-26
2023/01/02 00:54:11;;;;;;;32.22;20.55;;;;;;;2.41;82.24;101587.44;5062261;28;20103;-26
2023/01/02 00:56:36;;;;;;;34.85;20.65;;;;;;;2.60;82.16;101618.34;5080799;28;20016;-26
2023/01/02 00:59:02;;;;;;;34.53;19.65;;;;;;;2.33;82.96;101622.31;5077740;28;20037;-25
2023/01/02 01:01:27;;;;;;;36.35;19.67;;;;;;;1.96;83.33;101616.59;5068744;28;20028;-26
2023/01/02 01:03:53;;;;;;;35.28;19.40;;;;;;;1.73;83.76;101608.75;5050853;28;20598;-25
2023/01/02 01:06:20;;;;;;;28.17;17.65;;;;;;;1.66;82.59;101612.03;5034479;28;20024;-29
2023/01/02 01:08:45;;;;;;;26.95;17.15;;;;;;;1.62;82.28;101610.59;5069182;28;20113;-28
2023/01/02 01:11:13;;;;;;;29.20;17.70;;;;;;;1.51;83.10;101583.38;5069214;28;20560;-27
2023/01/02 01:13:39;;;;;;;36.30;20.02;;;;;;;1.93;83.62;101617.69;5050942;28;20029;-26
2023/01/02 01:16:06;;;;;;;35.85;19.98;;;;;;;2.06;82.69;101593.81;5068463;28;20507;-26
2023/01/02 01:18:32;;;;;;;35.70;20.67;;;;;;;1.75;82.93;101590.22;5068960;28;20021;-27
2023/01/02 01:20:58;;;;;;;35.70;20.40;;;;;;;1.88;84.15;101609.34;5068719;28;20043;-26
2023/01/02 01:23:23;;;;;;;29.17;18.17;;;;;;;2.10;82.92;101594.41;5069000;28;20074;-25
2023/01/02 01:25:49;;;;;;;32.90;19.00;;;;;;;1.71;83.91;101579.13;5050781;28;20016;-25
2023/01/02 01:28:14;;;;;;;30.92;18.27;;;;;;;1.58;84.14;101574.00;5068724;28;20068;-25
2023/01/02 01:30:40;;;;;;;33.22;18.60;;;;;;;2.12;83.16;101600.38;5050560;28;20020;-26
2023/01/02 01:33:05;;;;;;;35.85;19.02;;;;;;;2.12;83.55;101587.22;5069024;28;20124;-28
2023/01/02 01:35:32;;;;;;;40.92;20.23;;;;;;;2.34;82.16;101591.56;5069033;28;20404;-25
2023/01/02 01:37:58;;;;;;;33.05;17.52;;;;;;;2.03;82.41;101572.22;5069007;28;20032;-25
2023/01/02 01:40:23;;;;;;;37.55;20.20;;;;;;;2.10;82.43;101589.16;5068853;28;20040;-26
2023/01/02 01:42:48;;;;;;;37.50;18.15;;;;;;;2.11;82.22;101596.09;5068703;28;20094;-25
2023/01/02 01:45:15;;;;;;;28.63;17.48;;;;;;;1.90;82.56;101591.63;5068509;28;20108;-26
2023/01/02 01:47:46;;;;;;;32.22;17.90;;;;;;;2.18;82.48;101589.34;5050593;28;20458;-26
2023/01/02 01:50:19;;;;;;;37.88;19.15;;;;;;;2.30;80.49;101590.16;5050524;28;20029;-25
2023/01/02 01:52:54;;;;;;;44.42;22.15;;;;;;;2.17;80.27;101585.06;5050562;28;20059;-26
2023/01/02 01:55:25;;;;;;;39.63;20.58;;;;;;;1.83;81.88;101558.88;5068934;28;20047;-25
2023/01/02 01:57:56;;;;;;;42.47;21.73;;;;;;;1.93;82.68;101578.22;5068220;28;20032;-28
2023/01/02 02:00:21;;;;;;;49.65;23.25;;;;;;;1.88;84.33;101576.91;5050557;28;20025;-26
2023/01/02 02:02:50;;;;;;;53.47;24.45;;;;;;;1.95;84.69;101575.47;5068580;28;20035;-26
2023/01/02 02:05:20;;;;;;;49.25;24.45;;;;;;;1.98;84.29;101570.78;5068749;28;20024;-25
2023/01/02 02:08:02;;;;;;;45.63;23.80;;;;;;;2.05;85.19;101576.38;5068485;28;20078;-26
2023/01/02 02:10:28;;;;;;;49.30;23.65;;;;;;;1.93;85.08;101578.22;5068426;28;20418;-29
2023/01/02 02:12:53;;;;;;;47.55;23.88;;;;;;;1.70;84.68;101574.81;5069727;28;20029;-26
2023/01/02 02:15:23;;;;;;;49.75;23.67;;;;;;;1.37;86.56;101570.47;5071978;28;20058;-26
2023/01/02 02:18:06;;;;;;;53.55;23.73;;;;;;;1.64;86.69;101569.22;5071894;28;20042;-26
2023/01/02 02:20:54;;;;;;;46.97;23.08;;;;;;;1.67;86.25;101571.59;5054097;28;20389;-27
2023/01/02 02:24:02;;;;;;;46.40;22.15;;;;;;;1.46;86.24;101580.25;5053875;28;20052;-25
2023/01/02 02:26:45;;;;;;;45.42;21.35;;;;;;;1.04;85.97;101564.28;5025451;28;20519;-25
2023/01/02 02:29:25;;;;;;;48.00;22.02;;;;;;;1.38;85.12;101561.63;5071654;28;20032;-25
2023/01/02 02:32:02;;;;;;;47.35;21.92;;;;;;;1.39;84.71;101552.81;5071585;28;20108;-26
2023/01/02 02:34:42;;;;;;;44.08;21.92;;;;;;;1.30;84.16;101553.50;5053823;28;20032;-27
2023/01/02 02:37:18;;;;;;;40.80;21.08;;;;;;;1.41;83.29;101577.16;5053827;28;20107;-28
2023/01/02 02:40:16;;;;;;;46.17;23.52;;;;;;;1.58;83.20;101563.50;5053702;28;20055;-26
2023/01/02 02:43:06;;;;;;;41.35;21.27;;;;;;;1.34;85.49;101554.94;5071726;28;20108;-27
2023/01/02 02:46:14;;;;;;;40.33;21.83;;;;;;;0.94;85.84;101547.56;5071513;28;20035;-25
2023/01/02 02:49:02;;;;;;;43.28;21.50;;;;;;;0.68;84.39;101529.41;5042335;28;20036;-30
2023/01/02 02:51:36;;;;;;;43.13;22.20;;;;;;;0.65;84.05;101513.06;5053373;28;20035;-27
2023/01/02 02:54:13;;;;;;;39.55;19.73;;;;;;;0.49;85.34;101540.50;5070964;28;20029;-27
2023/01/02 02:56:40;;;;;;;41.40;21.90;;;;;;;0.24;85.76;101512.66;5071393;28;20028;-26
2023/01/02 02:59:06;;;;;;;43.95;23.20;;;;;;;0.40;85.71;101523.66;5071658;28;20508;-27
2023/01/02 03:01:31;;;;;;;53.83;24.27;;;;;;;0.64;85.59;101525.34;5071253;28;20078;-25
2023/01/02 03:03:57;;;;;;;58.45;23.63;;;;;;;0.52;85.25;101531.56;5052986;28;20031;-25
2023/01/02 03:07:04;;;;;;;52.88;21.63;;;;;;;0.38;85.48;101541.31;5052739;28;20031;-28
2023/01/02 03:09:53;;;;;;;45.33;21.85;;;;;;;0.29;85.33;101533.31;5062523;28;20096;-25
2023/01/02 03:12:19;;;;;;;54.25;22.98;;;;;;;0.35;86.79;101530.22;5070728;28;20036;-24
2023/01/02 03:14:57;;;;;;;50.22;20.75;;;;;;;0.36;87.29;101529.25;5070906;28;20017;-25
2023/01/02 03:17:25;;;;;;;58.33;22.23;;;;;;;0.55;87.06;101531.31;5071016;28;20029;-26
2023/01/02 03:20:00;;;;;;;52.50;22.40;;;;;;;0.41;87.69;101506.13;5071110;28;20037;-25
2023/01/02 03:22:32;;;;;;;46.85;21.80;;;;;;;0.70;86.31;101513.56;5071011;28;20097;-25
2023/01/02 03:24:58;;;;;;;45.58;24.77;;;;;;;0.91;86.32;101534.69;5069594;28;20028;-27
2023/01/02 03:27:28;;;;;;;43.95;22.10;;;;;;;0.78;87.35;101504.13;5070534;28;20033;-25
2023/01/02 03:30:01;;;;;;;42.38;23.02;;;;;;;0.78;87.14;101511.16;5070858;28;20059;-26
2023/01/02 03:32:34;;;;;;;36.63;21.10;;;;;;;1.11;86.66;101533.94;5070628;28;20032;-25
2023/01/02 03:35:04;;;;;;;55.45;25.67;;;;;;;1.16;86.32;101539.66;5052830;28;20033;-26
2023/01/02 03:37:33;;;;;;;45.38;24.20;;;;;;;1.07;85.20;101524.63;5070334;28;20031;-29
2023/01/02 03:40:05;;;;;;;47.13;23.58;;;;;;;0.93;86.60;101503.88;5070288;28;20024;-26
2023/01/02 03:42:40;;;;;;;56.95;26.02;;;;;;;1.08;87.18;101518.41;5052423;28;20060;-28
2023/01/02 03:45:11;;;;;;;76.13;28.83;;;;;;;1.36;86.90;101527.56;5070625;28;20032;-25
2023/01/02 03:47:45;;;;;;;63.00;27.10;;;;;;;1.42;86.26;101552.53;5070286;28;20116;-26
2023/01/02 03:50:20;;;;;;;51.60;25.88;;;;;;;1.38;87.30;101545.84;5069809;28;20032;-27
2023/01/02 03:52:45;;;;;;;47.63;23.77;;;;;;;1.13;86.80;101524.16;5070467;28;20028;-25
2023/01/02 03:55:11;;;;;;;47.67;24.02;;;;;;;1.14;87.28;101546.81;5070047;28;20035;-25
2023/01/02 03:57:48;;;;;;;48.15;24.02;;;;;;;1.02;86.94;101518.91;5070039;28;20036;-26
2023/01/02 04:00:17;;;;;;;44.65;24.40;;;;;;;1.19;86.98;101536.81;5051909;28;20025;-25
2023/01/02 04:02:58;;;;;;;48.20;23.70;;;;;;;1.24;87.49;101543.50;5069867;28;20081;-29
2023/01/02 04:05:48;;;;;;;48.85;25.38;;;;;;;1.26;87.00;101523.19;5070161;28;20040;-27
2023/01/02 04:09:05;;;;;;;59.97;24.85;;;;;;;1.64;86.23;101548.19;5069816;28;20032;-27
2023/01/02 04:11:33;;;;;;;54.75;23.92;;;;;;;1.35;87.01;101546.13;5035840;28;20068;-27
2023/01/02 04:14:06;;;;;;;48.45;25.13;;;;;;;1.61;85.53;101541.38;5069372;28;20459;-30
2023/01/02 04:16:35;;;;;;;44.65;22.10;;;;;;;1.46;86.44;101548.72;5052050;28;20034;-28
2023/01/02 04:19:08;;;;;;;45.53;23.95;;;;;;;1.10;87.24;101515.66;5069454;28;20056;-26
2023/01/02 04:21:37;;;;;;;49.20;23.25;;;;;;;1.33;86.29;101553.28;5069289;28;20056;-25
2023/01/02 04:24:06;;;;;;;;;;;;;;;1.33;86.51;101558.53;5069774;28;20066;-27
2023/01/02 04:26:45;;;;;;;50.28;25.80;;;;;;;1.18;88.46;101552.69;5069779;28;20002;-25
2023/01/02 04:29:11;;;;;;;61.47;27.67;;;;;;;1.16;89.02;101520.44;5069453;28;20077;-26
2023/01/02 04:31:52;;;;;;;61.05;28.35;;;;;;;1.23;88.90;101521.63;5051549;28;20033;-27
2023/01/02 04:34:20;;;;;;;65.35;28.23;;;;;;;1.19;90.36;101509.69;5069324;28;20508;-25
2023/01/02 04:36:46;;;;;;;80.57;31.50;;;;;;;1.31;90.76;101534.16;5069160;28;20036;-29
2023/01/02 04:39:11;;;;;;;115.95;39.45;;;;;;;1.38;91.51;101540.59;5051303;28;20059;-26
2023/01/02 04:41:37;;;;;;;133.43;41.33;;;;;;;1.27;92.42;101516.94;5051429;28;20032;-27
2023/01/02 04:44:03;;;;;;;68.78;30.60;;;;;;;1.54;90.37;101533.16;5069046;28;20021;-25
2023/01/02 04:46:29;;;;;;;42.97;23.90;;;;;;;1.32;87.92;101525.31;5051062;28;20039;-25
2023/01/02 04:48:55;;;;;;;37.85;22.05;;;;;;;1.37;87.33;101549.47;5069560;28;20025;-26
2023/01/02 04:51:21;;;;;;;36.30;22.23;;;;;;;1.20;87.46;101519.25;5069308;28;20523;-26
2023/01/02 04:53:48;;;;;;;38.83;22.33;;;;;;;1.17;87.44;101549.22;5051094;28;20029;-26
2023/01/02 04:56:13;;;;;;;41.42;23.75;;;;;;;0.89;89.57;101540.03;5068939;28;20025;-25
2023/01/02 04:58:39;;;;;;;36.53;21.48;;;;;;;0.78;89.28;101543.50;5069046;28;20021;-26
2023/01/02 05:01:09;;;;;;;41.70;23.05;;;;;;;1.00;89.68;101549.69;5069274;28;20116;-25
2023/01/02 05:03:39;;;;;;;48.97;25.83;;;;;;;0.76;89.07;101544.59;5069195;28;20032;-26
2023/01/02 05:06:05;;;;;;;39.95;23.33;;;;;;;0.99;88.11;101545.41;5068849;28;20115;-26
2023/01/02 05:08:31;;;;;;;42.17;23.83;;;;;;;0.73;87.98;101526.44;5069049;28;20032;-28
2023/01/02 05:10:56;;;;;;;38.90;22.73;;;;;;;0.75;89.13;101543.72;5068876;28;20029;-25
2023/01/02 05:13:21;;;;;;;32.42;20.67;;;;;;;0.76;89.28;101542.78;5068900;28;20020;-29
2023/01/02 05:15:54;;;;;;;38.53;21.65;;;;;;;0.92;87.35;101549.47;5068737;28;20462;-27
2023/01/02 05:18:19;;;;;;;37.75;22.67;;;;;;;0.87;87.79;101530.63;5050792;28;20074;-28
2023/01/02 05:20:45;;;;;;;35.58;21.30;;;;;;;0.64;87.37;101525.34;5069010;28;20040;-25
2023/01/02 05:25:54;;;;;;;40.00;21.20;;;;;;;0.71;87.14;101526.53;5069012;28;20059;-30
2023/01/02 05:28:19;;;;;;;35.75;20.83;;;;;;;0.40;87.78;101522.81;5068358;28;20484;-26
2023/01/02 05:30:45;;;;;;;34.88;21.77;;;;;;;0.72;86.66;101543.16;5068903;28;20112;-26
2023/01/02 05:33:10;;;;;;;43.17;22.70;;;;;;;0.55;87.42;101526.06;5068697;28;20111;-26
2023/01/02 05:35:35;;;;;;;40.63;21.40;;;;;;;0.62;86.94;101516.78;5050540;28;20404;-26
2023/01/02 05:38:01;;;;;;;39.30;21.85;;;;;;;0.75;86.63;101535.84;5033972;28;20059;-24
2023/01/02 05:40:26;;;;;;;35.63;19.67;;;;;;;0.98;85.40;101538.47;5068743;28;20035;-25
2023/01/02 05:42:52;;;;;;;38.15;21.02;;;;;;;0.67;85.92;101525.09;5068696;28;20044;-25
2023/01/02 05:45:17;;;;;;;38.92;20.92;;;;;;;0.84;85.47;101547.47;5069155;28;20671;-25
2023/01/02 05:47:43;;;;;;;36.13;20.20;;;;;;;0.64;86.92;101546.38;5051568;28;20039;-25
2023/01/02 05:50:08;;;;;;;36.67;19.75;;;;;;;0.72;86.55;101558.91;5072241;28;20021;-27
2023/01/02 05:52:33;;;;;;;39.15;21.77;;;;;;;0.53;86.50;101531.44;5054434;28;20029;-27
2023/01/02 05:54:59;;;;;;;40.20;23.48;;;;;;;0.37;86.47;101517.81;5072223;28;20024;-26
2023/01/02 05:57:24;;;;;;;46.80;24.25;;;;;;;0.72;86.64;101536.09;5072252;28;20035;-24
2023/01/02 05:59:50;;;;;;;41.78;22.35;;;;;;;0.80;86.46;101541.59;5072449;28;20039;-25
2023/01/02 06:02:15;;;;;;;36.83;20.02;;;;;;;0.77;86.13;101564.63;5072484;28;20033;-25
2023/01/02 06:04:40;;;;;;;35.47;18.90;;;;;;;0.92;85.25;101560.84;5072249;28;20487;-26
2023/01/02 06:07:06;;;;;;;34.85;20.42;;;;;;;1.09;84.60;101567.38;5072050;28;20028;-27
2023/01/02 06:09:31;;;;;;;35.78;19.98;;;;;;;1.24;84.06;101554.00;5072045;28;20103;-25
2023/01/02 06:11:57;;;;;;;35.35;19.95;;;;;;;1.08;84.02;101555.19;5071864;28;20037;-26
2023/01/02 06:14:22;;;;;;;38.08;19.85;;;;;;;0.72;86.10;101551.88;5072183;28;20020;-26
2023/01/02 06:16:48;;;;;;;35.67;19.42;;;;;;;0.61;87.21;101554.47;5054251;28;20028;-25
2023/01/02 06:19:13;;;;;;;39.22;20.45;;;;;;;1.06;85.34;101566.78;5072044;28;20067;-25
2023/01/02 06:21:39;;;;;;;45.45;22.48;;;;;;;0.94;85.21;101573.81;5072024;28;20155;-25
2023/01/02 06:24:04;;;;;;;55.35;26.65;;;;;;;0.48;84.34;101566.88;5053506;28;20025;-26
2023/01/02 06:26:30;;;;;;;49.10;25.42;;;;;;;0.14;85.95;101564.13;5071702;28;20083;-26
2023/01/02 06:28:56;;;;;;;53.80;25.30;;;;;;;0.26;85.75;101567.63;5053958;28;20032;-25
2023/01/02 06:31:24;;;;;;;52.20;24.20;;;;;;;0.05;86.25;101578.78;5054022;28;20040;-24
2023/01/02 06:33:54;;;;;;;49.93;23.57;;;;;;;-0.03;86.52;101563.59;5071689;28;20035;-26
2023/01/02 06:36:19;;;;;;;68.80;30.92;;;;;;;0.23;86.63;101587.06;5071704;28;20064;-26
2023/01/02 06:38:45;;;;;;;77.10;31.88;;;;;;;0.44;86.13;101583.78;5071759;28;20087;-27
2023/01/02 06:41:12;;;;;;;61.63;28.33;;;;;;;0.36;85.96;101587.81;5071537;28;20036;-27
2023/01/02 06:43:42;;;;;;;47.95;22.05;;;;;;;0.18;87.23;101595.28;5071933;28;20488;-25
2023/01/02 06:46:09;;;;;;;42.75;22.00;;;;;;;0.13;87.49;101589.53;5071409;28;20047;-25
2023/01/02 06:48:34;;;;;;;49.97;22.02;;;;;;;-0.05;88.31;101578.59;5074269;28;20055;-30
2023/01/02 06:51:03;;;;;;;52.30;24.02;;;;;;;0.15;89.10;101589.44;5081483;28;20020;-26
2023/01/02 06:53:29;;;;;;;52.08;23.60;;;;;;;0.25;88.64;101602.72;5079177;28;20457;-26
2023/01/02 06:55:56;;;;;;;47.78;23.40;;;;;;;0.28;89.47;101598.03;5071390;28;20028;-27
2023/01/02 06:58:22;;;;;;;53.70;24.23;;;;;;;9.16;66.49;101587.91;5074924;28;20024;-28
2023/01/02 07:00:48;;;;;;;41.97;22.70;;;;;;;7.09;72.54;101610.13;5073067;28;20034;-27
2023/01/02 07:03:15;;;;;;;38.22;22.15;;;;;;;5.92;70.39;101588.19;5073395;28;20107;-25
2023/01/02 07:05:41;;;;;;;40.15;23.25;;;;;;;6.80;72.47;101621.88;5091289;28;20024;-27
2023/01/02 07:08:07;;;;;;;48.78;29.35;;;;;;;6.90;66.30;101617.31;5091018;28;20077;-31
2023/01/02 07:10:33;;;;;;;39.63;20.92;;;;;;;9.08;67.63;101630.50;5091498;28;20028;-25
2023/01/02 07:12:58;;;;;;;38.88;22.45;;;;;;;7.13;70.90;101614.97;5087073;28;20039;-26
2023/01/02 07:15:24;;;;;;;40.25;21.58;;;;;;;5.80;67.78;101631.75;5080634;28;20031;-28
2023/01/02 07:17:49;;;;;;;40.22;22.15;;;;;;;4.32;74.00;101608.59;5079914;28;20123;-28
2023/01/02 07:20:15;;;;;;;45.33;23.83;;;;;;;4.30;76.69;101617.63;5081275;28;20031;-27
2023/01/02 07:22:40;;;;;;;42.78;24.98;;;;;;;4.29;76.58;101623.88;5088900;28;20063;-26
2023/01/02 07:25:06;;;;;;;42.22;24.20;;;;;;;4.05;79.23;101626.94;5091115;28;20024;-27
2023/01/02 07:27:32;;;;;;;43.25;22.65;;;;;;;3.80;82.20;101619.41;5072889;28;20032;-26
2023/01/02 07:29:57;;;;;;;39.78;22.95;;;;;;;3.94;81.05;101626.13;5090819;28;20046;-27
2023/01/02 07:32:23;;;;;;;37.85;23.80;;;;;;;3.67;81.95;101639.09;5090638;28;20039;-29
2023/01/02 07:34:50;;;;;;;37.90;22.58;;;;;;;3.88;82.12;101631.91;5090877;28;20050;-27
2023/01/02 07:37:15;;;;;;;38.72;23.30;;;;;;;3.95;80.26;101614.56;5066320;28;20484;-25
2023/01/02 07:39:40;;;;;;;37.50;23.42;;;;;;;3.97;80.74;101628.47;5080557;28;20035;-31
2023/01/02 07:42:06;;;;;;;38.88;23.58;;;;;;;5.02;81.25;101627.66;5078564;28;20205;-25
2023/01/02 07:44:31;;;;;;;37.35;23.60;;;;;;;6.56;73.28;101643.75;5078011;28;20062;-25
2023/01/02 07:46:57;;;;;;;44.72;25.80;;;;;;;6.18;74.45;101627.22;5052336;28;20039;-28
2023/01/02 07:49:22;;;;;;;39.47;24.92;;;;;;;5.67;74.66;101631.28;5070432;28;20101;-27
2023/01/02 07:51:47;;;;;;;44.05;26.60;;;;;;;4.92;76.82;101642.72;5052078;28;20078;-27
2023/01/02 07:54:13;;;;;;;46.20;29.33;;;;;;;7.16;72.44;101646.47;5069827;28;20020;-25
2023/01/02 07:56:38;;;;;;;44.15;27.60;;;;;;;8.16;68.54;101616.59;5052470;28;20476;-26
2023/01/02 07:59:04;;;;;;;41.72;26.00;;;;;;;9.65;66.29;101627.63;5090536;28;20030;-25
2023/01/02 08:01:29;;;;;;;37.20;24.98;;;;;;;10.59;63.92;101637.34;5072102;28;20027;-27
2023/01/02 08:03:55;;;;;;;32.75;22.90;;;;;;;10.88;63.64;101635.75;5071890;28;20036;-26
2023/01/02 08:06:20;;;;;;;33.95;23.35;;;;;;;10.87;61.49;101650.94;5089766;28;20032;-28
2023/01/02 08:08:46;;;;;;;34.97;24.13;;;;;;;10.60;60.81;101639.84;5090179;28;20503;-25
2023/01/02 08:11:18;;;;;;;34.85;23.10;;;;;;;9.22;65.17;101628.97;5089362;28;20032;-25
2023/01/02 08:13:43;;;;;;;34.92;21.67;;;;;;;10.84;64.81;101612.06;5072053;28;20039;-28
2023/01/02 08:16:14;;;;;;;36.10;21.52;;;;;;;10.57;64.11;101628.69;5089828;28;20024;-25
2023/01/02 08:18:40;;;;;;;34.35;23.40;;;;;;;10.25;66.01;101630.56;5090043;28;20065;-27
2023/01/02 08:21:06;;;;;;;27.33;18.67;;;;;;;10.75;61.09;101615.03;5089913;28;20411;-26
2023/01/02 08:23:33;;;;;;;29.70;19.95;;;;;;;11.92;61.22;101617.78;5089812;28;20423;-27
2023/01/02 08:26:00;;;;;;;28.38;18.08;;;;;;;14.26;54.13;101611.91;5089819;28;20028;-32
2023/01/02 08:28:26;;;;;;;24.90;17.63;;;;;;;12.85;56.78;101629.31;5089912;28;20099;-27
2023/01/02 08:30:52;;;;;;;25.08;16.83;;;;;;;12.80;56.87;101625.56;5089790;28;20028;-27
2023/01/02 08:33:17;;;;;;;62.63;33.30;;;;;;;10.95;61.16;101628.66;5089573;28;20034;-27
2023/01/02 08:35:43;;;;;;;32.92;19.17;;;;;;;9.09;68.41;101610.84;5089599;28;20458;-27
2023/01/02 08:38:08;;;;;;;38.10;23.67;;;;;;;12.10;62.29;101613.88;5089515;28;20024;-28
2023/01/02 08:40:34;;;;;;;26.60;18.00;;;;;;;11.35;63.10;101599.84;5089728;28;20036;-25
2023/01/02 08:42:59;;;;;;;28.13;17.75;;;;;;;11.38;64.33;101580.75;5089983;28;20028;-27
2023/01/02 08:45:24;;;;;;;27.17;17.30;;;;;;;12.30;59.42;101604.19;5089382;28;20055;-28
2023/01/02 08:47:50;;;;;;;28.35;18.08;;;;;;;11.91;59.97;101608.13;5089421;28;20024;-30
2023/01/02 08:50:16;;;;;;;31.73;20.25;;;;;;;12.02;62.83;101596.91;5070652;28;20020;-25
2023/01/02 08:52:41;;;;;;;26.92;17.65;;;;;;;12.70;59.47;101582.25;5089813;28;20026;-28
2023/01/02 08:55:07;;;;;;;25.67;17.80;;;;;;;12.92;58.04;101596.38;5089458;28;20035;-29
2023/01/02 08:57:32;;;;;;;25.70;16.52;;;;;;;14.09;54.67;101603.44;5089383;28;20032;-26
2023/01/02 08:59:58;;;;;;;24.33;17.48;;;;;;;13.37;56.54;101570.06;5071086;28;20031;-27
2023/01/02 09:02:23;;;;;;;26.63;19.83;;;;;;;13.02;59.08;101592.31;5087593;28;20028;-29
2023/01/02 09:04:49;;;;;;;26.40;18.17;;;;;;;14.32;53.86;101597.66;5070947;28;20249;-27
2023/01/02 09:07:14;;;;;;;25.17;17.42;;;;;;;13.35;58.79;101580.16;5071249;28;20023;-25
2023/01/02 09:09:40;;;;;;;26.77;18.10;;;;;;;14.06;55.92;101583.22;5089162;28;20033;-31
2023/01/02 09:12:05;;;;;;;23.80;17.45;;;;;;;12.23;60.41;101560.47;5070762;28;20024;-27
2023/01/02 09:14:31;;;;;;;28.65;18.95;;;;;;;11.73;63.28;101559.56;5089336;28;20032;-27
2023/01/02 09:16:57;;;;;;;27.80;18.48;;;;;;;11.62;65.00;101563.56;5089114;28;20027;-28
2023/01/02 09:19:23;;;;;;;33.17;18.73;;;;;;;10.99;67.11;101544.50;5089167;28;20032;-26
2023/01/02 09:21:48;;;;;;;29.70;19.15;;;;;;;10.92;68.95;101543.63;5090276;28;20151;-26
2023/01/02 09:24:14;;;;;;;26.80;18.60;;;;;;;11.26;67.55;101553.72;5093218;28;20099;-26
2023/01/02 09:26:42;;;;;;;35.58;26.15;;;;;;;11.45;67.01;101536.25;5093443;28;20073;-26
2023/01/02 09:29:12;;;;;;;27.73;18.15;;;;;;;11.21;66.85;101519.53;5093383;28;20047;-28
2023/01/02 09:31:38;;;;;;;30.63;17.50;;;;;;;10.78;68.17;101529.25;5093100;28;20032;-27
2023/01/02 09:34:03;;;;;;;26.15;15.95;;;;;;;10.67;68.60;101511.88;5074636;28;20028;-26
2023/01/02 09:36:29;;;;;;;28.27;18.58;;;;;;;11.31;66.87;101529.09;5093362;28;20173;-27
2023/01/02 09:38:57;;;;;;;28.10;17.25;;;;;;;11.47;67.35;101510.19;5074912;28;20030;-27
2023/01/02 09:41:39;;;;;;;27.60;18.42;;;;;;;11.50;67.15;101527.66;5093137;28;20027;-27
2023/01/02 09:44:17;;;;;;;26.88;17.67;;;;;;;12.03;64.69;101517.50;5092728;28;20036;-28
2023/01/02 09:46:45;;;;;;;;;;;;;;;11.96;64.84;101517.47;5075136;28;20039;-27
2023/01/02 09:49:15;;;;;;;25.17;16.48;;;;;;;12.10;63.76;101512.25;5092786;28;19912;-26
2023/01/02 09:51:42;;;;;;;24.88;15.70;;;;;;;12.23;62.47;101504.31;5093331;28;20115;-27
2023/01/02 09:54:18;;;;;;;27.00;16.23;;;;;;;12.73;61.79;101502.38;5092391;28;20097;-26
2023/01/02 09:56:49;;;;;;;35.47;20.80;;;;;;;12.89;61.81;101489.66;5092796;28;20043;-26
2023/01/02 09:59:31;;;;;;;26.17;18.27;;;;;;;13.03;60.48;101502.09;5074592;28;20024;-26
2023/01/02 10:02:16;;;;;;;28.00;17.90;;;;;;;13.17;60.53;101500.28;5092770;28;20024;-27
2023/01/02 10:05:12;;;;;;;25.15;16.80;;;;;;;13.29;59.79;101495.19;5092402;28;20526;-25
2023/01/02 10:07:47;;;;;;;30.00;19.02;;;;;;;13.17;59.96;101471.66;5092732;28;20020;-26
2023/01/02 10:10:25;;;;;;;30.95;19.90;;;;;;;13.64;59.22;101486.00;5092196;28;20524;-25
2023/01/02 10:13:05;;;;;;;27.20;18.60;;;;;;;13.84;57.68;101477.16;5092584;28;20028;-26
2023/01/02 10:15:31;;;;;;;26.13;16.88;;;;;;;14.15;56.64;101483.75;5092369;28;20115;-26
2023/01/02 10:18:28;;;;;;;26.80;17.63;;;;;;;14.05;57.52;101471.56;5092024;28;20110;-28
2023/01/02 10:21:00;;;;;;;28.20;17.27;;;;;;;14.12;57.57;101476.09;5091683;28;20083;-27
2023/01/02 10:23:49;;;;;;;28.00;17.65;;;;;;;14.53;56.98;101462.44;5092228;28;20055;-25
2023/01/02 10:26:20;;;;;;;28.98;17.92;;;;;;;14.59;55.18;101460.81;5091790;28;20048;-26
2023/01/02 10:28:45;;;;;;;234.02;34.50;;;;;;;14.82;55.97;101461.13;5092069;28;20024;-28
2023/01/02 10:31:40;;;;;;;30.00;18.90;;;;;;;14.86;55.83;101451.59;5092095;28;20078;-26
2023/01/02 10:34:13;;;;;;;55.58;19.27;;;;;;;14.94;54.65;101449.72;5063504;28;20126;-27
2023/01/02 10:36:40;;;;;;;37.45;20.70;;;;;;;15.12;54.49;101444.47;5091490;28;20024;-29
2023/01/02 10:39:08;;;;;;;38.28;19.90;;;;;;;15.31;54.14;101458.00;5092262;28;20039;-26
2023/01/02 10:41:34;;;;;;;;;;;;;;;15.39;53.08;101455.03;5073718;28;20170;-27
2023/01/02 10:44:10;;;;;;;29.38;18.67;;;;;;;15.38;53.56;101435.38;5092088;28;19991;-32
2023/01/02 10:46:39;;;;;;;31.73;21.10;;;;;;;15.91;51.66;101444.13;5073686;28;20078;-30
2023/01/02 10:49:07;;;;;;;30.35;19.15;;;;;;;16.11;50.37;101433.19;5091540;28;20031;-27
2023/01/02 10:51:33;;;;;;;;;;;;;;;16.44;49.86;101447.09;5073856;28;20123;-28
2023/01/02 10:54:09;;;;;;;33.83;23.60;;;;;;;16.45;49.79;101435.31;5091805;28;19972;-29
2023/01/02 10:56:37;;;;;;;24.70;17.08;;;;;;;16.33;50.71;101426.31;5092083;28;20038;-27
2023/01/02 10:59:20;;;;;;;61.63;50.95;;;;;;;16.37;48.94;101419.44;5091571;28;20054;-29
2023/01/02 11:01:58;;;;;;;30.17;21.58;;;;;;;16.44;49.38;101406.72;5073476;28;20483;-26
2023/01/02 11:04:27;;;;;;;;;;;;;;;17.00;47.69;101425.53;5092415;28;20476;-28
2023/01/02 11:07:00;;;;;;;24.48;17.63;;;;;;;16.96;48.31;101419.78;5083709;28;19982;-28
2023/01/02 11:09:32;;;;;;;25.08;17.52;;;;;;;17.51;46.19;101408.00;5080198;28;20077;-28
2023/01/02 11:12:00;;;;;;;21.58;14.13;;;;;;;17.30;46.72;101405.81;5064225;28;20040;-29
2023/01/02 11:14:27;;;;;;;;;;;;;;;17.63;44.97;101408.81;5080883;28;20039;-28
2023/01/02 11:16:56;;;;;;;31.40;21.60;;;;;;;18.04;43.44;101412.50;5077925;28;20454;-28
2023/01/02 11:19:22;;;;;;;20.30;13.40;;;;;;;17.83;44.15;101399.59;5081956;28;20093;-28
2023/01/02 11:21:48;;;;;;;22.27;14.48;;;;;;;18.21;43.44;101388.31;5079686;28;20060;-30
2023/01/02 11:24:24;;;;;;;22.13;14.32;;;;;;;18.24;42.56;101376.19;5064068;28;20489;-28
2023/01/02 11:26:50;;;;;;;24.20;16.98;;;;;;;18.64;42.08;101378.91;5069104;28;20450;-28
2023/01/02 11:29:34;;;;;;;21.92;14.57;;;;;;;18.69;40.90;101361.97;5076070;28;20047;-27